createdAt,value
2019-01-20T00:01:51.691Z,110.78
2019-01-20T00:04:22.526Z,98.92
2019-01-20T00:06:52.281Z,89.72
2019-01-20T00:09:23.166Z,103.95
2019-01-20T00:11:54.046Z,114.03
2019-01-20T00:14:23.890Z,120.00
2019-01-20T00:16:54.687Z,85.28
2019-01-20T00:19:24.404Z,97.95
2019-01-20T00:21:55.278Z,85.45
2019-01-20T00:24:26.398Z,85.87
2019-01-20T00:26:56.154Z,100.87
2019-01-20T00:29:27.958Z,93.67
2019-01-20T00:31:58.848Z,50.50
2019-01-20T00:34:29.603Z,58.65
2019-01-20T00:37:00.439Z,85.95
2019-01-20T00:39:31.278Z,79.58
2019-01-20T00:42:02.038Z,56.80
2019-01-20T00:44:31.843Z,61.98
2019-01-20T00:47:02.682Z,46.88
2019-01-20T00:49:33.441Z,59.53
2019-01-20T00:52:04.286Z,71.72
2019-01-20T00:54:36.487Z,68.90
2019-01-20T00:57:09.673Z,59.88
2019-01-20T00:59:42.761Z,68.20
2019-01-20T01:02:13.602Z,79.45
2019-01-20T01:04:44.358Z,61.42
2019-01-20T01:07:15.167Z,49.53
2019-01-20T01:09:46.566Z,37.55
2019-01-20T01:12:18.162Z,61.77
2019-01-20T01:14:48.929Z,47.65
2019-01-20T01:17:18.599Z,43.80
2019-01-20T01:19:50.121Z,50.45
2019-01-20T01:22:20.926Z,51.13
2019-01-20T01:24:51.722Z,55.78
2019-01-20T01:27:22.491Z,61.40
2019-01-20T01:29:53.318Z,57.15
2019-01-20T01:32:24.131Z,56.10
2019-01-20T01:35:01.048Z,59.05
2019-01-20T01:37:30.761Z,43.63
2019-01-20T01:40:01.567Z,63.20
2019-01-20T01:42:32.400Z,56.23
2019-01-20T01:45:03.169Z,52.73
2019-01-20T01:47:33.926Z,47.80
2019-01-20T01:50:05.439Z,52.98
2019-01-20T01:52:36.290Z,43.70
2019-01-20T01:55:08.726Z,43.55
2019-01-20T01:57:39.485Z,45.38
2019-01-20T02:00:12.395Z,39.35
2019-01-20T02:02:43.171Z,41.13
2019-01-20T02:05:14.018Z,53.73
2019-01-20T02:07:44.847Z,45.43
2019-01-20T02:10:22.681Z,56.40
2019-01-20T02:12:53.527Z,54.23
2019-01-20T02:15:24.486Z,52.93
2019-01-20T02:17:56.718Z,48.25
2019-01-20T02:20:28.239Z,47.33
2019-01-20T02:22:59.766Z,50.83
2019-01-20T02:25:30.686Z,40.20
2019-01-20T02:28:02.208Z,32.35
2019-01-20T02:30:34.540Z,52.27
2019-01-20T02:33:07.435Z,59.20
2019-01-20T02:35:38.197Z,44.63
2019-01-20T02:38:07.924Z,43.45
2019-01-20T02:40:37.646Z,47.45
2019-01-20T02:43:08.462Z,61.90
2019-01-20T02:45:39.318Z,44.05
2019-01-20T02:48:10.079Z,47.55
2019-01-20T02:50:39.243Z,50.92
2019-01-20T02:53:10.034Z,48.15
2019-01-20T02:55:43.800Z,50.12
2019-01-20T02:58:11.086Z,52.08
2019-01-20T03:00:40.770Z,53.92
2019-01-20T03:03:12.806Z,61.42
2019-01-20T03:05:43.594Z,92.27
2019-01-20T03:08:14.327Z,76.28
2019-01-20T03:10:44.678Z,70.80
2019-01-20T03:13:14.406Z,68.87
2019-01-20T03:15:45.218Z,62.60
2019-01-20T03:18:16.677Z,78.57
2019-01-20T03:20:46.443Z,65.83
2019-01-20T03:23:17.242Z,50.30
2019-01-20T03:25:48.037Z,58.78
2019-01-20T03:28:17.762Z,73.05
2019-01-20T03:30:47.517Z,52.78
2019-01-20T03:33:17.243Z,49.15
2019-01-20T03:35:47.034Z,50.20
2019-01-20T03:38:17.755Z,54.67
2019-01-20T03:40:49.122Z,53.50
2019-01-20T03:43:19.887Z,45.83
2019-01-20T03:45:50.642Z,50.52
2019-01-20T03:48:20.393Z,61.92
2019-01-20T03:50:51.198Z,63.90
2019-01-20T03:53:20.883Z,69.97
2019-01-20T03:55:51.715Z,74.50
2019-01-20T03:58:22.527Z,61.13
2019-01-20T04:00:53.355Z,62.73
2019-01-20T04:03:24.035Z,80.15
2019-01-20T04:05:54.849Z,65.92
2019-01-20T04:08:25.686Z,52.50
2019-01-20T04:10:56.438Z,67.25
2019-01-20T04:13:27.200Z,54.65
2019-01-20T04:15:56.918Z,56.13
2019-01-20T04:18:26.714Z,79.00
2019-01-20T04:20:57.450Z,65.28
2019-01-20T04:23:28.243Z,57.98
2019-01-20T04:25:59.006Z,67.47
2019-01-20T04:28:29.770Z,66.67
2019-01-20T04:31:00.522Z,76.57
2019-01-20T04:33:31.332Z,102.02
2019-01-20T04:36:02.075Z,82.67
2019-01-20T04:38:32.891Z,82.82
2019-01-20T04:41:02.679Z,68.12
2019-01-20T04:43:33.438Z,74.25
2019-01-20T04:46:04.207Z,74.37
2019-01-20T04:48:34.964Z,75.97
2019-01-20T04:51:05.886Z,83.10
2019-01-20T04:53:36.917Z,67.35
2019-01-20T04:56:07.685Z,95.72
2019-01-20T04:58:38.634Z,75.00
2019-01-20T05:01:29.647Z,82.47
2019-01-20T05:03:59.326Z,78.80
2019-01-20T05:06:30.680Z,80.87
2019-01-20T05:09:01.446Z,66.20
2019-01-20T05:11:32.249Z,96.63
2019-01-20T05:14:03.006Z,69.07
2019-01-20T05:16:33.767Z,79.87
2019-01-20T05:19:04.593Z,72.67
2019-01-20T05:21:35.353Z,64.00
2019-01-20T05:24:06.127Z,80.85
2019-01-20T05:26:37.610Z,69.27
2019-01-20T05:29:07.269Z,80.03
2019-01-20T05:31:38.021Z,74.95
2019-01-20T05:34:07.764Z,88.25
2019-01-20T05:36:38.527Z,89.30
2019-01-20T05:39:09.682Z,121.15
2019-01-20T05:41:40.443Z,66.07
2019-01-20T05:44:11.205Z,94.58
2019-01-20T05:46:41.966Z,82.72
2019-01-20T05:49:12.439Z,86.40
2019-01-20T05:51:42.163Z,101.05
2019-01-20T05:54:11.920Z,104.32
2019-01-20T05:56:42.679Z,115.08
2019-01-20T05:59:14.205Z,81.45
2019-01-20T06:01:44.922Z,128.75
2019-01-20T06:04:15.675Z,124.05
2019-01-20T06:06:48.594Z,116.65
2019-01-20T06:09:18.358Z,90.38
2019-01-20T06:11:49.126Z,90.83
2019-01-20T06:14:19.883Z,88.37
2019-01-20T06:16:50.675Z,106.12
2019-01-20T06:19:21.436Z,94.22
2019-01-20T06:21:52.283Z,103.53
2019-01-20T06:24:23.004Z,73.50
2019-01-20T06:26:53.805Z,85.75
2019-01-20T06:29:24.562Z,80.40
2019-01-20T06:31:55.323Z,62.98
2019-01-20T06:34:26.726Z,101.95
2019-01-20T06:36:56.476Z,102.97
2019-01-20T06:39:26.398Z,74.05
2019-01-20T06:41:57.249Z,86.72
2019-01-20T06:44:28.123Z,91.80
2019-01-20T06:46:58.915Z,82.78
2019-01-20T06:49:29.682Z,97.42
2019-01-20T06:51:59.407Z,83.55
2019-01-20T06:54:30.201Z,81.02
2019-01-20T06:57:01.718Z,93.85
2019-01-20T06:59:32.603Z,77.82
2019-01-20T07:02:03.439Z,111.00
2019-01-20T07:04:34.208Z,88.82
2019-01-20T07:07:05.647Z,83.50
2019-01-20T07:09:36.479Z,80.35
2019-01-20T07:12:09.360Z,81.42
2019-01-20T07:14:39.793Z,73.02
2019-01-20T07:17:10.674Z,71.28
2019-01-20T07:19:41.487Z,67.12
2019-01-20T07:22:13.203Z,71.95
2019-01-20T07:24:46.003Z,75.25
2019-01-20T07:27:16.763Z,78.40
2019-01-20T07:29:47.595Z,74.55
2019-01-20T07:32:18.446Z,94.97
2019-01-20T07:34:49.235Z,91.42
2019-01-20T07:37:20.634Z,95.45
2019-01-20T07:39:51.473Z,105.92
2019-01-20T07:42:22.246Z,102.95
2019-01-20T07:44:55.315Z,113.20
2019-01-20T07:47:24.994Z,96.92
2019-01-20T07:49:54.725Z,129.78
2019-01-20T07:52:25.476Z,127.53
2019-01-20T07:54:58.974Z,142.25
2019-01-20T07:57:31.873Z,110.85
2019-01-20T08:00:04.763Z,142.65
2019-01-20T08:02:38.899Z,142.28
2019-01-20T08:05:12.883Z,108.35
2019-01-20T08:07:42.760Z,126.18
2019-01-20T08:10:20.875Z,120.02
2019-01-20T08:12:51.621Z,175.25
2019-01-20T08:15:22.441Z,161.28
2019-01-20T08:17:52.274Z,161.90
2019-01-20T08:20:23.763Z,123.05
2019-01-20T08:22:53.602Z,151.78
2019-01-20T08:25:38.841Z,154.93
2019-01-20T08:28:08.575Z,119.82
2019-01-20T08:30:39.366Z,125.67
2019-01-20T08:33:09.086Z,104.75
2019-01-20T08:35:39.886Z,113.37
2019-01-20T08:38:10.683Z,92.80
2019-01-20T08:40:41.483Z,85.05
2019-01-20T08:43:12.246Z,94.13
2019-01-20T08:46:02.485Z,81.67
2019-01-20T08:48:32.508Z,64.87
2019-01-20T08:51:03.315Z,96.70
2019-01-20T08:53:34.163Z,116.05
2019-01-20T08:56:05.034Z,103.42
2019-01-20T08:58:35.806Z,54.70
2019-01-20T09:01:08.683Z,84.60
2019-01-20T09:03:38.444Z,100.72
2019-01-20T09:06:10.075Z,93.50
2019-01-20T09:08:40.876Z,102.07
2019-01-20T09:11:12.046Z,119.47
2019-01-20T09:13:43.315Z,82.17
2019-01-20T09:16:14.074Z,101.95
2019-01-20T09:18:44.475Z,99.40
2019-01-20T09:21:15.276Z,117.13
2019-01-20T09:23:46.074Z,107.17
2019-01-20T09:26:16.875Z,89.70
2019-01-20T09:28:47.914Z,64.97
2019-01-20T09:31:18.727Z,107.27
2019-01-20T09:33:49.524Z,45.38
2019-01-20T09:36:19.277Z,97.65
2019-01-20T09:38:48.963Z,130.95
2019-01-20T09:41:19.794Z,110.60
2019-01-20T09:43:50.562Z,94.00
2019-01-20T09:46:21.316Z,107.55
2019-01-20T09:48:53.581Z,102.97
2019-01-20T09:51:24.315Z,81.35
2019-01-20T09:53:55.162Z,110.45
2019-01-20T09:56:26.042Z,65.75
2019-01-20T09:58:55.833Z,129.05
2019-01-20T10:01:27.314Z,118.82
2019-01-20T10:03:58.073Z,45.83
2019-01-20T10:06:29.515Z,85.28
2019-01-20T10:09:00.282Z,133.25
2019-01-20T10:11:31.114Z,158.93
2019-01-20T10:14:01.995Z,111.97
2019-01-20T10:16:32.842Z,85.12
2019-01-20T10:19:03.643Z,100.05
2019-01-20T10:21:34.443Z,61.70
2019-01-20T10:24:04.200Z,96.42
2019-01-20T10:26:34.003Z,84.42
2019-01-20T10:29:06.132Z,81.00
2019-01-20T10:31:36.914Z,102.40
2019-01-20T10:34:07.084Z,101.33
2019-01-20T10:36:37.856Z,104.45
2019-01-20T10:39:13.721Z,113.00
2019-01-20T10:41:44.554Z,122.47
2019-01-20T10:44:15.437Z,126.50
2019-01-20T10:46:46.213Z,139.12
2019-01-20T10:49:16.121Z,137.03
2019-01-20T10:51:45.362Z,131.55
2019-01-20T10:54:16.124Z,128.20
2019-01-20T10:56:46.962Z,78.55
2019-01-20T10:59:17.845Z,56.25
2019-01-20T11:01:48.645Z,48.38
2019-01-20T11:04:19.477Z,58.02
2019-01-20T11:06:50.238Z,74.22
2019-01-20T11:09:21.074Z,56.65
2019-01-20T11:11:51.842Z,68.65
2019-01-20T11:14:22.642Z,68.07
2019-01-20T11:16:52.395Z,68.22
2019-01-20T11:19:23.274Z,72.40
2019-01-20T11:21:54.166Z,78.12
2019-01-20T11:24:25.081Z,59.35
2019-01-20T11:26:55.827Z,48.25
2019-01-20T11:29:25.075Z,57.43
2019-01-20T11:31:55.917Z,61.98
2019-01-20T11:34:26.715Z,73.47
2019-01-20T11:36:58.082Z,55.23
2019-01-20T11:39:27.794Z,70.28
2019-01-20T11:41:58.559Z,70.85
2019-01-20T11:44:30.038Z,84.80
2019-01-20T11:47:00.915Z,77.20
2019-01-20T11:49:31.699Z,53.38
2019-01-20T11:52:02.640Z,61.45
2019-01-20T11:54:34.023Z,46.65
2019-01-20T11:57:04.994Z,61.95
2019-01-20T11:59:34.772Z,61.42
2019-01-20T12:02:04.718Z,52.93
2019-01-20T12:04:35.491Z,61.58
2019-01-20T12:07:06.286Z,54.25
2019-01-20T12:09:36.165Z,61.50
2019-01-20T12:12:07.005Z,53.98
2019-01-20T12:14:36.763Z,54.10
2019-01-20T12:17:07.635Z,51.68
2019-01-20T12:19:38.354Z,60.10
2019-01-20T12:22:08.198Z,56.50
2019-01-20T12:24:39.003Z,61.30
2019-01-20T12:27:09.849Z,64.70
2019-01-20T12:29:43.899Z,73.42
2019-01-20T12:32:14.800Z,89.65
2019-01-20T12:34:44.514Z,79.58
2019-01-20T12:40:03.324Z,96.05
2019-01-20T12:44:52.591Z,111.62
2019-01-20T12:47:24.288Z,100.95
2019-01-20T12:49:55.086Z,91.22
2019-01-20T12:52:25.915Z,78.33
2019-01-20T12:54:56.759Z,75.08
2019-01-20T12:57:27.635Z,65.50
2019-01-20T12:59:59.235Z,64.35
2019-01-20T13:02:28.967Z,60.25
2019-01-20T13:05:04.355Z,60.20
2019-01-20T13:07:35.167Z,77.12
2019-01-20T13:10:04.560Z,74.87
2019-01-20T13:12:34.277Z,76.87
2019-01-20T13:15:05.597Z,64.75
2019-01-20T13:17:36.075Z,86.30
2019-01-20T13:20:11.074Z,78.50
2019-01-20T13:22:42.355Z,64.35
2019-01-20T13:25:16.196Z,70.08
2019-01-20T13:27:45.922Z,67.25
2019-01-20T13:30:26.564Z,71.28
2019-01-20T13:32:57.394Z,76.33
2019-01-20T13:35:27.596Z,88.50
2019-01-20T13:38:10.007Z,100.50
2019-01-20T13:40:49.766Z,82.40
2019-01-20T13:43:20.602Z,112.17
2019-01-20T13:45:51.526Z,97.82
2019-01-20T13:48:22.215Z,106.63
2019-01-20T13:50:53.675Z,109.07
2019-01-20T13:53:24.461Z,110.78
2019-01-20T13:56:01.200Z,93.70
2019-01-20T13:58:28.451Z,91.22
2019-01-20T14:00:59.319Z,84.15
2019-01-20T14:03:30.078Z,99.45
2019-01-20T14:06:00.920Z,146.57
2019-01-20T14:08:31.686Z,126.10
2019-01-20T14:11:02.516Z,114.92
2019-01-20T14:13:34.006Z,113.52
2019-01-20T14:16:04.758Z,127.85
2019-01-20T14:18:35.643Z,115.82
2019-01-20T14:21:10.139Z,98.35
2019-01-20T14:23:40.955Z,117.33
2019-01-20T14:26:12.410Z,122.42
2019-01-20T14:28:43.167Z,106.43
2019-01-20T14:31:12.839Z,95.67
2019-01-20T14:33:42.605Z,108.97
2019-01-20T14:36:13.403Z,94.30
2019-01-20T14:38:43.874Z,96.47
2019-01-20T14:41:14.720Z,89.25
2019-01-20T14:43:45.604Z,97.08
2019-01-20T14:46:16.955Z,99.62
2019-01-20T14:48:48.318Z,90.25
2019-01-20T14:51:19.198Z,108.20
2019-01-20T14:53:50.043Z,110.08
2019-01-20T14:56:20.795Z,114.92
2019-01-20T14:58:51.607Z,110.68
2019-01-20T15:01:22.367Z,127.53
2019-01-20T15:03:53.247Z,145.72
2019-01-20T15:06:23.998Z,118.40
2019-01-20T15:08:57.330Z,133.15
2019-01-20T15:11:26.763Z,137.97
2019-01-20T15:17:38.004Z,120.50
2019-01-20T15:20:12.276Z,139.85
2019-01-20T15:22:43.246Z,145.47
2019-01-20T15:25:16.007Z,144.47
2019-01-20T15:27:46.843Z,137.65
2019-01-20T15:30:20.396Z,142.72
2019-01-20T15:32:53.193Z,168.07
2019-01-20T15:35:23.967Z,246.70
2019-01-20T15:37:53.275Z,219.60
2019-01-20T15:40:27.752Z,206.90
2019-01-20T15:42:58.525Z,175.25
2019-01-20T15:45:29.241Z,277.22
2019-01-20T15:48:00.755Z,188.93
2019-01-20T15:50:33.563Z,152.25
2019-01-20T15:53:03.325Z,138.15
2019-01-20T15:55:34.238Z,144.75
2019-01-20T15:58:05.874Z,179.57
2019-01-20T16:00:35.763Z,150.68
2019-01-20T16:03:06.554Z,325.60
2019-01-20T16:05:37.363Z,322.50
2019-01-20T16:08:08.394Z,351.32
2019-01-20T16:10:40.680Z,270.37
2019-01-20T16:13:11.680Z,214.27
2019-01-20T16:15:42.441Z,170.90
2019-01-20T16:18:14.539Z,164.90
2019-01-20T16:20:47.794Z,148.53
2019-01-20T16:23:18.675Z,161.25
2019-01-20T16:25:49.558Z,156.07
2019-01-20T16:28:20.362Z,177.60
2019-01-20T16:30:51.160Z,164.20
2019-01-20T16:33:24.925Z,145.38
2019-01-20T16:35:53.353Z,156.60
2019-01-20T16:38:24.128Z,133.57
2019-01-20T16:40:55.645Z,117.90
2019-01-20T16:43:26.437Z,140.10
2019-01-20T16:45:58.833Z,137.40
2019-01-20T16:48:29.758Z,131.20
2019-01-20T16:51:03.358Z,125.15
2019-01-20T16:53:33.293Z,120.33
2019-01-20T16:56:04.359Z,118.20
2019-01-20T16:58:35.278Z,120.05
2019-01-20T17:01:06.244Z,145.10
2019-01-20T17:03:38.125Z,130.05
2019-01-20T17:06:09.920Z,145.43
2019-01-20T17:08:40.933Z,137.10
2019-01-20T17:11:11.838Z,150.62
2019-01-20T17:13:42.732Z,127.82
2019-01-20T17:16:14.916Z,143.85
2019-01-20T17:18:45.939Z,135.97
2019-01-20T17:21:16.922Z,143.10
2019-01-20T17:23:48.053Z,143.17
2019-01-20T17:26:19.076Z,152.07
2019-01-20T17:28:50.049Z,131.07
2019-01-20T17:31:21.559Z,132.05
2019-01-20T17:33:52.613Z,130.37
2019-01-20T17:36:23.486Z,136.65
2019-01-20T17:38:54.367Z,131.10
2019-01-20T17:41:25.886Z,129.87
2019-01-20T17:43:56.930Z,155.82
2019-01-20T17:46:27.718Z,147.30
2019-01-20T17:48:58.529Z,177.45
2019-01-20T17:51:29.405Z,194.80
2019-01-20T17:54:00.212Z,192.37
2019-01-20T17:56:31.213Z,157.88
2019-01-20T17:59:02.225Z,171.40
2019-01-20T18:01:33.367Z,172.47
2019-01-20T18:04:04.319Z,132.70
2019-01-20T18:06:35.326Z,143.65
2019-01-20T18:09:09.200Z,123.92
2019-01-20T18:11:41.246Z,124.12
2019-01-20T18:14:19.686Z,122.25
2019-01-20T18:16:50.358Z,112.72
2019-01-20T18:19:21.278Z,86.30
2019-01-20T18:21:52.286Z,96.32
2019-01-20T18:24:23.182Z,107.65
2019-01-20T18:26:53.134Z,73.55
2019-01-20T18:29:24.115Z,103.87
2019-01-20T18:31:54.036Z,118.40
2019-01-20T18:34:25.055Z,105.07
2019-01-20T18:36:54.922Z,129.53
2019-01-20T18:39:25.932Z,174.02
2019-01-20T18:41:58.328Z,144.17
2019-01-20T18:44:29.080Z,139.65
2019-01-20T18:46:59.961Z,143.65
2019-01-20T18:49:30.729Z,162.65
2019-01-20T18:52:01.519Z,146.93
2019-01-20T18:54:32.523Z,163.00
2019-01-20T18:57:03.459Z,152.53
2019-01-20T18:59:34.526Z,158.57
2019-01-20T19:02:05.527Z,149.95
2019-01-20T19:04:36.436Z,162.53
2019-01-20T19:07:07.517Z,136.90
2019-01-20T19:09:38.403Z,140.40
2019-01-20T19:12:09.519Z,152.22
2019-01-20T19:14:40.569Z,170.12
2019-01-20T19:17:11.596Z,135.18
2019-01-20T19:19:41.518Z,139.70
2019-01-20T19:22:11.562Z,161.25
2019-01-20T19:24:49.078Z,145.72
2019-01-20T19:27:20.119Z,131.65
2019-01-20T19:29:51.039Z,150.85
2019-01-20T19:32:22.003Z,153.82
2019-01-20T19:34:52.754Z,175.22
2019-01-20T19:37:23.768Z,156.78
2019-01-20T19:39:54.697Z,161.57
2019-01-20T19:42:25.243Z,144.55
2019-01-20T19:44:56.126Z,151.05
2019-01-20T19:47:27.041Z,180.20
2019-01-20T19:49:57.961Z,156.60
2019-01-20T19:52:28.767Z,166.60
2019-01-20T19:54:58.720Z,176.63
2019-01-20T19:57:29.572Z,137.28
2019-01-20T20:00:00.438Z,153.18
2019-01-20T20:02:31.355Z,153.30
2019-01-20T20:05:02.166Z,136.92
2019-01-20T20:07:35.242Z,115.22
2019-01-20T20:10:08.998Z,112.37
2019-01-20T20:12:39.966Z,126.97
2019-01-20T20:15:12.718Z,140.43
2019-01-20T20:17:43.609Z,119.15
2019-01-20T20:20:15.797Z,139.90
2019-01-20T20:22:46.803Z,147.47
2019-01-20T20:25:21.294Z,134.67
2019-01-20T20:27:52.275Z,134.45
2019-01-20T20:30:25.811Z,132.67
2019-01-20T20:32:55.799Z,150.93
2019-01-20T20:35:26.676Z,82.85
2019-01-20T20:37:56.682Z,110.50
2019-01-20T20:40:26.577Z,138.82
2019-01-20T20:42:58.206Z,120.57
2019-01-20T20:45:28.721Z,110.50
2019-01-20T20:48:00.285Z,73.10
2019-01-20T20:50:30.081Z,117.10
2019-01-20T20:53:00.927Z,112.57
2019-01-20T20:55:31.678Z,108.40
2019-01-20T20:58:02.567Z,118.45
2019-01-20T21:00:43.960Z,107.30
2019-01-20T21:03:15.770Z,69.90
2019-01-20T21:05:46.859Z,80.15
2019-01-20T21:08:17.886Z,76.47
2019-01-20T21:10:48.846Z,64.55
2019-01-20T21:13:20.689Z,75.60
2019-01-20T21:15:51.636Z,93.45
2019-01-20T21:18:23.158Z,57.25
2019-01-20T21:20:54.235Z,55.17
2019-01-20T21:23:23.967Z,41.70
2019-01-20T21:25:54.928Z,69.92
2019-01-20T21:28:27.479Z,48.40
2019-01-20T21:30:58.323Z,51.02
2019-01-20T21:33:28.318Z,53.85
2019-01-20T21:35:59.000Z,59.03
2019-01-20T21:38:29.877Z,94.37
2019-01-20T21:40:59.559Z,73.30
2019-01-20T21:43:30.326Z,59.90
2019-01-20T21:46:01.246Z,65.80
2019-01-20T21:48:32.125Z,82.85
2019-01-20T21:51:02.912Z,72.53
2019-01-20T21:53:32.726Z,96.82
2019-01-20T21:56:03.619Z,99.85
2019-01-20T21:58:35.039Z,70.90
2019-01-20T22:01:05.846Z,131.93
2019-01-20T22:03:36.594Z,76.75
2019-01-20T22:06:08.901Z,63.25
2019-01-20T22:08:39.719Z,71.42
2019-01-20T22:11:10.517Z,75.65
2019-01-20T22:13:42.040Z,69.65
2019-01-20T22:16:14.199Z,71.75
2019-01-20T22:18:45.544Z,71.12
2019-01-20T22:21:17.923Z,66.47
2019-01-20T22:23:49.234Z,63.02
2019-01-20T22:26:20.000Z,75.30
2019-01-20T22:28:49.714Z,53.20
2019-01-20T22:31:20.480Z,46.53
2019-01-20T22:33:51.887Z,71.80
2019-01-20T22:36:22.575Z,62.00
2019-01-20T22:38:55.579Z,43.95
2019-01-20T22:41:25.206Z,73.67
2019-01-20T22:43:57.583Z,71.53
2019-01-20T22:46:28.440Z,64.45
2019-01-20T22:48:59.199Z,36.98
2019-01-20T22:51:36.059Z,16.73
2019-01-20T22:54:02.363Z,40.08
2019-01-20T22:56:34.656Z,53.02
2019-01-20T22:59:05.481Z,69.62
2019-01-20T23:01:35.200Z,49.48
2019-01-20T23:04:07.559Z,69.40
2019-01-20T23:06:37.337Z,51.45
2019-01-20T23:09:10.957Z,28.20
2019-01-20T23:11:41.764Z,80.55
2019-01-20T23:14:13.222Z,64.00
2019-01-20T23:16:43.954Z,85.85
2019-01-20T23:19:14.767Z,63.00
2019-01-20T23:21:43.919Z,57.65
2019-01-20T23:24:14.682Z,67.67
2019-01-20T23:26:45.434Z,34.48
2019-01-20T23:29:17.125Z,35.83
2019-01-20T23:31:47.005Z,22.13
2019-01-20T23:34:17.833Z,66.72
2019-01-20T23:36:47.633Z,33.58
2019-01-20T23:39:18.402Z,24.92
2019-01-20T23:41:50.595Z,42.80
2019-01-20T23:44:21.395Z,52.75
2019-01-20T23:46:52.204Z,47.35
2019-01-20T23:49:21.993Z,79.70
2019-01-20T23:51:52.847Z,71.45
2019-01-20T23:54:25.623Z,57.95
2019-01-20T23:56:56.499Z,92.37
2019-01-20T23:59:27.326Z,89.58
